createdAt,value
2023-07-19T00:01:09.983Z,17.10
2023-07-19T00:03:37.153Z,17.10
2023-07-19T00:06:04.387Z,17.00
2023-07-19T00:08:34.951Z,17.00
2023-07-19T00:11:02.162Z,17.00
2023-07-19T00:13:29.345Z,16.90
2023-07-19T00:15:56.789Z,16.90
2023-07-19T00:18:23.972Z,16.80
2023-07-19T00:20:51.397Z,16.80
2023-07-19T00:23:18.520Z,16.80
2023-07-19T00:25:47.073Z,16.70
2023-07-19T00:28:14.538Z,16.70
2023-07-19T00:30:42.283Z,16.70
2023-07-19T00:33:09.693Z,16.70
2023-07-19T00:35:44.469Z,16.60
2023-07-19T00:38:15.719Z,16.60
2023-07-19T00:40:42.985Z,16.50
2023-07-19T00:43:13.392Z,16.50
2023-07-19T00:45:48.804Z,16.50
2023-07-19T00:48:17.737Z,16.40
2023-07-19T00:50:46.005Z,16.50
2023-07-19T00:53:13.466Z,16.50
2023-07-19T00:55:41.700Z,16.60
2023-07-19T00:58:09.518Z,16.60
2023-07-19T01:00:36.651Z,16.60
2023-07-19T01:03:05.563Z,16.60
2023-07-19T01:05:33.578Z,16.60
2023-07-19T01:08:00.922Z,16.50
2023-07-19T01:10:28.149Z,16.50
2023-07-19T01:13:09.956Z,16.40
2023-07-19T01:15:38.115Z,16.30
2023-07-19T01:18:05.737Z,16.30
2023-07-19T01:20:33.868Z,16.20
2023-07-19T01:23:01.148Z,16.20
2023-07-19T01:25:28.372Z,16.20
2023-07-19T01:27:55.531Z,16.10
2023-07-19T01:30:22.723Z,16.10
2023-07-19T01:32:50.557Z,16.00
2023-07-19T01:35:18.569Z,16.00
2023-07-19T01:37:45.838Z,15.90
2023-07-19T01:40:13.534Z,15.90
2023-07-19T01:42:40.814Z,15.90
2023-07-19T01:45:08.996Z,15.90
2023-07-19T01:47:36.340Z,15.90
2023-07-19T01:50:04.392Z,15.90
2023-07-19T01:52:31.759Z,15.80
2023-07-19T01:54:58.857Z,15.90
2023-07-19T01:57:26.107Z,15.80
2023-07-19T01:59:53.685Z,15.80
2023-07-19T02:02:21.964Z,15.80
2023-07-19T02:04:49.538Z,15.80
2023-07-19T02:07:16.949Z,15.80
2023-07-19T02:09:45.149Z,15.80
2023-07-19T02:12:12.329Z,15.80
2023-07-19T02:14:40.235Z,15.70
2023-07-19T02:17:07.481Z,15.60
2023-07-19T02:19:34.630Z,15.60
2023-07-19T02:22:01.899Z,15.60
2023-07-19T02:24:29.085Z,15.50
2023-07-19T02:26:56.336Z,15.50
2023-07-19T02:29:23.449Z,15.50
2023-07-19T02:31:53.669Z,15.50
2023-07-19T02:34:21.730Z,15.50
2023-07-19T02:36:50.468Z,15.50
2023-07-19T02:39:21.450Z,15.50
2023-07-19T02:41:48.784Z,15.40
2023-07-19T02:44:15.954Z,15.40
2023-07-19T02:46:43.248Z,15.40
2023-07-19T02:49:12.472Z,15.40
2023-07-19T02:51:39.613Z,15.40
2023-07-19T02:54:06.824Z,15.30
2023-07-19T02:56:34.256Z,15.40
2023-07-19T02:59:01.544Z,15.30
2023-07-19T03:01:28.927Z,15.30
2023-07-19T03:03:56.180Z,15.30
2023-07-19T03:06:23.400Z,15.30
2023-07-19T03:08:50.654Z,15.40
2023-07-19T03:11:18.029Z,15.40
2023-07-19T03:13:45.198Z,15.40
2023-07-19T03:16:12.502Z,15.40
2023-07-19T03:18:39.789Z,15.50
2023-07-19T03:21:06.914Z,15.40
2023-07-19T03:23:34.755Z,15.40
2023-07-19T03:26:02.055Z,15.40
2023-07-19T03:28:31.270Z,15.50
2023-07-19T03:30:59.166Z,15.50
2023-07-19T03:33:27.876Z,15.50
2023-07-19T03:35:55.135Z,15.50
2023-07-19T03:38:23.019Z,15.50
2023-07-19T03:40:53.642Z,15.50
2023-07-19T03:43:21.514Z,15.50
2023-07-19T03:45:48.673Z,15.40
2023-07-19T03:48:16.007Z,15.50
2023-07-19T03:50:43.141Z,15.50
2023-07-19T03:53:11.400Z,15.60
2023-07-19T03:55:39.688Z,15.60
2023-07-19T03:58:07.836Z,15.60
2023-07-19T04:00:35.873Z,15.70
2023-07-19T04:03:03.079Z,15.70
2023-07-19T04:05:30.364Z,15.70
2023-07-19T04:08:02.309Z,15.70
2023-07-19T04:10:31.255Z,15.60
2023-07-19T04:12:58.372Z,15.60
2023-07-19T04:15:25.920Z,15.80
2023-07-19T04:17:53.193Z,15.90
2023-07-19T04:20:22.188Z,16.00
2023-07-19T04:22:49.992Z,16.10
2023-07-19T04:25:17.357Z,16.10
2023-07-19T04:27:44.956Z,16.10
2023-07-19T04:30:12.768Z,16.20
2023-07-19T04:32:40.306Z,16.20
2023-07-19T04:35:08.518Z,16.20
2023-07-19T04:37:39.318Z,16.20
2023-07-19T04:40:13.028Z,16.20
2023-07-19T04:42:41.544Z,16.30
2023-07-19T04:45:10.526Z,16.30
2023-07-19T04:47:38.679Z,16.30
2023-07-19T04:50:11.060Z,16.30
2023-07-19T04:52:39.137Z,16.40
2023-07-19T04:55:07.154Z,16.40
2023-07-19T04:57:35.767Z,16.40
2023-07-19T05:00:06.210Z,16.40
2023-07-19T05:02:33.569Z,16.40
2023-07-19T05:05:00.973Z,16.40
2023-07-19T05:07:28.228Z,16.40
2023-07-19T05:09:55.380Z,16.40
2023-07-19T05:12:22.618Z,16.50
2023-07-19T05:14:49.700Z,16.50
2023-07-19T05:17:16.818Z,16.50
2023-07-19T05:19:44.011Z,16.50
2023-07-19T05:22:12.242Z,16.50
2023-07-19T05:24:41.424Z,16.60
2023-07-19T05:27:08.729Z,16.70
2023-07-19T05:29:35.929Z,16.80
2023-07-19T05:32:03.289Z,16.80
2023-07-19T05:34:30.433Z,16.90
2023-07-19T05:36:57.588Z,17.00
2023-07-19T05:39:24.738Z,17.10
2023-07-19T05:41:52.129Z,17.20
2023-07-19T05:44:19.231Z,17.30
2023-07-19T05:46:46.365Z,17.40
2023-07-19T05:49:13.532Z,17.50
2023-07-19T05:51:40.718Z,17.50
2023-07-19T05:54:07.807Z,17.60
2023-07-19T05:56:34.960Z,17.70
2023-07-19T05:59:02.068Z,17.60
2023-07-19T06:01:32.392Z,17.70
2023-07-19T06:04:01.750Z,17.80
2023-07-19T06:06:28.915Z,17.90
2023-07-19T06:08:56.072Z,17.80
2023-07-19T06:11:23.434Z,18.00
2023-07-19T06:13:51.249Z,18.00
2023-07-19T06:16:18.479Z,18.10
2023-07-19T06:18:45.651Z,18.10
2023-07-19T06:21:13.083Z,18.30
2023-07-19T06:23:40.701Z,18.30
2023-07-19T06:26:07.859Z,18.40
2023-07-19T06:28:36.418Z,18.50
2023-07-19T06:31:04.040Z,18.60
2023-07-19T06:33:31.444Z,18.80
2023-07-19T06:35:59.341Z,18.80
2023-07-19T06:38:27.274Z,18.90
2023-07-19T06:40:54.352Z,18.90
2023-07-19T06:43:21.562Z,18.90
2023-07-19T06:45:48.934Z,18.90
2023-07-19T06:48:16.233Z,18.90
2023-07-19T06:50:43.445Z,18.80
2023-07-19T06:53:10.580Z,18.70
2023-07-19T06:55:39.625Z,18.70
2023-07-19T06:58:06.745Z,18.70
2023-07-19T07:00:33.927Z,18.80
2023-07-19T07:03:01.518Z,18.70
2023-07-19T07:05:28.753Z,18.70
2023-07-19T07:07:55.992Z,18.70
2023-07-19T07:10:23.171Z,18.70
2023-07-19T07:12:50.450Z,18.80
2023-07-19T07:15:17.626Z,18.90
2023-07-19T07:17:45.654Z,19.00
2023-07-19T07:20:12.774Z,19.00
2023-07-19T07:22:39.987Z,18.90
2023-07-19T07:25:07.376Z,18.90
2023-07-19T07:27:35.564Z,19.00
2023-07-19T07:30:02.875Z,19.10
2023-07-19T07:32:30.073Z,19.20
2023-07-19T07:34:57.322Z,19.40
2023-07-19T07:37:24.579Z,19.40
2023-07-19T07:39:51.722Z,19.50
2023-07-19T07:42:21.423Z,19.40
2023-07-19T07:44:48.946Z,19.30
2023-07-19T07:47:16.413Z,19.20
2023-07-19T07:49:43.675Z,19.20
2023-07-19T07:52:12.578Z,19.20
2023-07-19T07:54:39.752Z,19.30
2023-07-19T07:57:07.431Z,19.30
2023-07-19T07:59:35.155Z,19.30
2023-07-19T08:02:05.310Z,19.20
2023-07-19T08:04:34.156Z,19.30
2023-07-19T08:07:01.455Z,19.30
2023-07-19T08:09:29.022Z,19.20
2023-07-19T08:11:56.420Z,19.30
2023-07-19T08:14:23.607Z,19.50
2023-07-19T08:16:55.191Z,19.60
2023-07-19T08:19:22.364Z,19.60
2023-07-19T08:21:49.544Z,19.70
2023-07-19T08:24:16.974Z,19.80
2023-07-19T08:26:44.307Z,19.80
2023-07-19T08:29:12.334Z,19.80
2023-07-19T08:31:39.439Z,19.90
2023-07-19T08:34:06.804Z,19.90
2023-07-19T08:36:34.087Z,19.90
2023-07-19T08:39:01.329Z,19.90
2023-07-19T08:41:33.324Z,20.10
2023-07-19T08:44:01.176Z,20.20
2023-07-19T08:46:28.655Z,20.30
2023-07-19T08:48:55.990Z,20.40
2023-07-19T08:51:25.530Z,20.50
2023-07-19T08:53:53.081Z,20.50
2023-07-19T08:56:22.214Z,20.50
2023-07-19T08:58:49.355Z,20.50
2023-07-19T09:01:16.599Z,20.60
2023-07-19T09:03:43.987Z,20.70
2023-07-19T09:06:11.302Z,20.90
2023-07-19T09:08:41.370Z,21.00
2023-07-19T09:11:09.223Z,21.10
2023-07-19T09:13:39.272Z,21.20
2023-07-19T09:16:08.074Z,21.20
2023-07-19T09:18:39.947Z,21.10
2023-07-19T09:21:07.662Z,20.90
2023-07-19T09:23:38.897Z,21.00
2023-07-19T09:26:07.236Z,21.10
2023-07-19T09:28:36.093Z,21.10
2023-07-19T09:31:24.803Z,21.20
2023-07-19T09:33:57.459Z,21.50
2023-07-19T09:36:25.042Z,21.70
2023-07-19T09:38:54.440Z,22.00
2023-07-19T09:41:23.735Z,22.30
2023-07-19T09:43:52.784Z,22.40
2023-07-19T09:46:20.788Z,22.60
2023-07-19T09:48:48.136Z,22.60
2023-07-19T09:51:18.161Z,22.70
2023-07-19T09:53:48.903Z,22.70
2023-07-19T09:56:16.436Z,22.80
2023-07-19T09:58:44.216Z,22.70
2023-07-19T10:01:11.912Z,22.80
2023-07-19T10:03:39.167Z,22.70
2023-07-19T10:06:07.223Z,22.70
2023-07-19T10:08:34.555Z,22.70
2023-07-19T10:11:02.455Z,22.80
2023-07-19T10:13:31.414Z,22.80
2023-07-19T10:15:58.886Z,23.00
2023-07-19T10:18:26.545Z,22.60
2023-07-19T10:21:06.891Z,22.40
2023-07-19T10:23:35.698Z,22.30
2023-07-19T10:26:11.535Z,22.40
2023-07-19T10:28:39.649Z,22.60
2023-07-19T10:31:28.158Z,22.60
2023-07-19T10:33:57.254Z,22.70
2023-07-19T10:36:25.126Z,22.70
2023-07-19T10:38:52.726Z,22.60
2023-07-19T10:41:21.604Z,22.60
2023-07-19T10:43:52.763Z,22.80
2023-07-19T10:46:23.577Z,23.00
2023-07-19T10:48:52.339Z,23.00
2023-07-19T10:51:21.543Z,22.80
2023-07-19T10:54:00.530Z,22.80
2023-07-19T10:56:29.244Z,22.70
2023-07-19T10:59:01.466Z,22.40
2023-07-19T11:01:31.494Z,22.30
2023-07-19T11:04:05.155Z,22.30
2023-07-19T11:06:39.195Z,22.40
2023-07-19T11:09:11.331Z,22.70
2023-07-19T11:11:40.205Z,23.10
2023-07-19T11:14:07.897Z,23.50
2023-07-19T11:16:35.998Z,23.60
2023-07-19T11:19:03.373Z,23.60
2023-07-19T11:21:30.628Z,23.80
2023-07-19T11:23:57.764Z,23.60
2023-07-19T11:26:25.006Z,23.60
2023-07-19T11:28:59.565Z,23.30
2023-07-19T11:31:39.870Z,23.10
2023-07-19T11:34:20.416Z,23.00
2023-07-19T11:36:48.360Z,23.00
2023-07-19T11:39:21.715Z,23.40
2023-07-19T11:41:49.966Z,23.40
2023-07-19T11:44:23.378Z,23.60
2023-07-19T11:46:53.515Z,23.60
2023-07-19T11:49:20.944Z,23.70
2023-07-19T11:51:48.269Z,23.90
2023-07-19T11:54:16.460Z,23.90
2023-07-19T11:56:43.900Z,23.90
2023-07-19T11:59:11.177Z,24.00
2023-07-19T12:01:38.380Z,24.10
2023-07-19T12:04:05.720Z,24.10
2023-07-19T12:06:33.059Z,24.10
2023-07-19T12:09:00.508Z,24.00
2023-07-19T12:11:27.878Z,23.80
2023-07-19T12:13:58.548Z,23.60
2023-07-19T12:16:27.028Z,23.40
2023-07-19T12:18:54.275Z,23.10
2023-07-19T12:21:21.685Z,22.80
2023-07-19T12:26:32.298Z,22.80
2023-07-19T12:28:59.973Z,22.80
2023-07-19T12:31:27.355Z,23.00
2023-07-19T12:33:54.865Z,23.10
2023-07-19T12:36:22.189Z,23.40
2023-07-19T12:38:49.654Z,23.70
2023-07-19T12:41:17.777Z,23.80
2023-07-19T12:43:45.016Z,24.00
2023-07-19T12:46:12.205Z,24.30
2023-07-19T12:48:40.029Z,24.40
2023-07-19T12:51:08.197Z,24.30
2023-07-19T12:53:38.456Z,24.30
2023-07-19T12:56:07.035Z,24.10
2023-07-19T12:58:34.209Z,24.10
2023-07-19T13:01:01.430Z,23.70
2023-07-19T13:03:28.819Z,23.70
2023-07-19T13:05:56.043Z,23.80
2023-07-19T13:08:23.124Z,23.50
2023-07-19T13:10:50.910Z,23.80
2023-07-19T13:13:18.131Z,24.10
2023-07-19T13:15:45.301Z,24.10
2023-07-19T13:18:12.561Z,24.30
2023-07-19T13:20:39.738Z,24.60
2023-07-19T13:23:06.999Z,24.80
2023-07-19T13:25:34.242Z,24.70
2023-07-19T13:28:01.521Z,24.70
2023-07-19T13:30:28.751Z,25.00
2023-07-19T13:32:56.266Z,24.90
2023-07-19T13:40:23.548Z,24.90
2023-07-19T13:42:50.660Z,24.70
2023-07-19T13:45:18.434Z,24.50
2023-07-19T13:47:45.663Z,24.50
2023-07-19T13:50:12.826Z,24.50
2023-07-19T13:52:39.985Z,24.30
2023-07-19T13:55:07.812Z,24.30
2023-07-19T13:57:34.919Z,24.50
2023-07-19T14:00:02.185Z,24.80
2023-07-19T14:02:35.161Z,24.90
2023-07-19T14:05:02.502Z,25.00
2023-07-19T14:07:29.598Z,24.90
2023-07-19T14:09:57.155Z,24.70
2023-07-19T14:12:25.867Z,24.50
2023-07-19T14:14:53.277Z,24.30
2023-07-19T14:17:21.376Z,24.10
2023-07-19T14:19:48.569Z,24.00
2023-07-19T14:22:15.676Z,23.90
2023-07-19T14:24:43.018Z,23.90
2023-07-19T14:27:10.744Z,23.90
2023-07-19T14:29:38.141Z,23.70
2023-07-19T14:32:06.056Z,23.70
2023-07-19T14:34:38.774Z,23.70
2023-07-19T14:37:07.077Z,23.90
2023-07-19T14:39:34.174Z,24.30
2023-07-19T14:42:01.641Z,24.50
2023-07-19T14:44:28.808Z,24.70
2023-07-19T14:46:58.214Z,24.50
2023-07-19T14:49:25.785Z,24.30
2023-07-19T14:51:53.106Z,24.20
2023-07-19T14:54:20.292Z,24.30
2023-07-19T14:56:47.627Z,24.40
2023-07-19T14:59:14.818Z,24.30
2023-07-19T15:01:42.702Z,24.30
2023-07-19T15:04:10.260Z,24.40
2023-07-19T15:06:37.785Z,24.50
2023-07-19T15:09:04.950Z,24.60
2023-07-19T15:11:32.121Z,24.70
2023-07-19T15:13:59.321Z,24.50
2023-07-19T15:16:26.801Z,24.40
2023-07-19T15:18:54.213Z,24.30
2023-07-19T15:21:21.449Z,24.20
2023-07-19T15:23:50.255Z,24.00
2023-07-19T15:28:48.127Z,23.80
2023-07-19T15:31:15.797Z,23.80
2023-07-19T15:33:43.082Z,23.70
2023-07-19T15:36:10.248Z,23.80
2023-07-19T15:38:41.499Z,23.80
2023-07-19T15:41:15.633Z,23.90
2023-07-19T15:43:46.420Z,24.10
2023-07-19T15:46:14.006Z,24.30
2023-07-19T15:48:41.269Z,24.60
2023-07-19T15:51:08.715Z,24.80
2023-07-19T15:53:39.389Z,24.80
2023-07-19T15:56:08.001Z,24.90
2023-07-19T15:58:36.229Z,24.80
2023-07-19T16:01:07.309Z,24.60
2023-07-19T16:03:36.306Z,24.50
2023-07-19T16:06:04.390Z,24.40
2023-07-19T16:08:32.303Z,24.20
2023-07-19T16:10:59.697Z,24.10
2023-07-19T16:13:26.845Z,24.30
2023-07-19T16:15:53.985Z,24.20
2023-07-19T16:18:21.866Z,24.00
2023-07-19T16:20:49.154Z,23.80
2023-07-19T16:23:16.326Z,23.70
2023-07-19T16:25:43.496Z,23.40
2023-07-19T16:28:10.700Z,23.30
2023-07-19T16:30:37.975Z,23.20
2023-07-19T16:33:05.269Z,23.20
2023-07-19T16:35:32.941Z,23.20
2023-07-19T16:38:00.339Z,23.10
2023-07-19T16:40:29.023Z,23.10
2023-07-19T16:42:56.273Z,23.20
2023-07-19T16:45:25.168Z,23.30
2023-07-19T16:47:58.052Z,23.40
2023-07-19T16:50:26.847Z,23.40
2023-07-19T16:53:14.075Z,23.40
2023-07-19T16:55:41.666Z,23.40
2023-07-19T16:58:08.982Z,23.20
2023-07-19T17:00:36.245Z,23.10
2023-07-19T17:03:04.544Z,23.10
2023-07-19T17:05:35.296Z,23.00
2023-07-19T17:08:04.737Z,23.00
2023-07-19T17:10:33.542Z,23.00
2023-07-19T17:13:05.962Z,23.00
2023-07-19T17:15:37.047Z,22.90
2023-07-19T17:18:06.655Z,22.80
2023-07-19T17:20:35.069Z,22.70
2023-07-19T17:23:03.546Z,22.80
2023-07-19T17:25:30.812Z,22.70
2023-07-19T17:27:58.039Z,22.60
2023-07-19T17:30:25.141Z,22.50
2023-07-19T17:32:52.417Z,22.40
2023-07-19T17:35:19.736Z,22.40
2023-07-19T17:37:47.165Z,22.50
2023-07-19T17:40:14.975Z,22.50
2023-07-19T17:42:42.488Z,22.40
2023-07-19T17:45:10.585Z,22.50
2023-07-19T17:47:37.825Z,22.40
2023-07-19T17:50:08.055Z,22.40
2023-07-19T17:52:35.928Z,22.20
2023-07-19T17:55:03.872Z,22.20
2023-07-19T17:57:31.617Z,22.30
2023-07-19T17:59:58.809Z,22.40
2023-07-19T18:02:26.204Z,22.40
2023-07-19T18:04:54.118Z,22.50
2023-07-19T18:07:21.316Z,22.50
2023-07-19T18:09:49.155Z,22.40
2023-07-19T18:12:16.389Z,22.40
2023-07-19T18:14:44.599Z,22.20
2023-07-19T18:17:11.942Z,22.20
2023-07-19T18:19:39.098Z,22.20
2023-07-19T18:22:06.412Z,22.30
2023-07-19T18:24:33.605Z,22.30
2023-07-19T18:27:01.493Z,22.30
2023-07-19T18:29:28.678Z,22.30
2023-07-19T18:31:56.099Z,22.20
2023-07-19T18:34:23.270Z,22.20
2023-07-19T18:36:50.664Z,22.10
2023-07-19T18:39:18.032Z,22.10
2023-07-19T18:41:45.340Z,22.00
2023-07-19T18:44:12.538Z,21.90
2023-07-19T18:46:39.841Z,21.80
2023-07-19T18:49:07.003Z,21.80
2023-07-19T18:51:34.127Z,21.80
2023-07-19T18:54:02.023Z,21.80
2023-07-19T18:56:30.675Z,21.80
2023-07-19T18:58:57.922Z,21.80
2023-07-19T19:01:25.349Z,21.70
2023-07-19T19:03:54.937Z,21.70
2023-07-19T19:06:23.183Z,21.60
2023-07-19T19:08:50.405Z,21.60
2023-07-19T19:11:18.694Z,21.60
2023-07-19T19:13:45.941Z,21.50
2023-07-19T19:16:13.259Z,21.40
2023-07-19T19:18:40.382Z,21.20
2023-07-19T19:21:07.806Z,20.80
2023-07-19T19:23:35.331Z,20.40
2023-07-19T19:26:02.532Z,20.00
2023-07-19T19:28:31.346Z,19.60
2023-07-19T19:31:00.117Z,19.20
2023-07-19T19:33:27.389Z,18.90
2023-07-19T19:35:54.611Z,18.70
2023-07-19T19:38:26.738Z,18.70
2023-07-19T19:40:58.375Z,18.70
2023-07-19T19:43:25.719Z,18.60
2023-07-19T19:45:54.332Z,18.60
2023-07-19T19:48:21.622Z,18.80
2023-07-19T19:50:49.456Z,18.80
2023-07-19T19:53:17.026Z,18.70
2023-07-19T19:58:14.342Z,18.80
2023-07-19T20:00:42.206Z,18.80
2023-07-19T20:08:10.157Z,18.80
2023-07-19T20:10:38.079Z,18.80
2023-07-19T20:13:06.630Z,18.70
2023-07-19T20:15:52.449Z,18.70
2023-07-19T20:18:22.795Z,18.70
2023-07-19T20:20:50.431Z,18.70
2023-07-19T20:23:17.637Z,18.60
2023-07-19T20:26:02.728Z,18.60
2023-07-19T20:28:34.036Z,18.60
2023-07-19T20:33:34.502Z,18.60
2023-07-19T20:43:32.721Z,18.50
2023-07-19T20:46:00.478Z,18.50
2023-07-19T20:48:34.735Z,18.50
2023-07-19T20:51:04.295Z,18.40
2023-07-19T20:53:31.484Z,18.40
2023-07-19T20:55:58.608Z,18.30
2023-07-19T20:58:25.823Z,18.20
2023-07-19T21:00:56.743Z,18.10
2023-07-19T21:03:25.625Z,18.10
2023-07-19T21:05:52.836Z,18.00
2023-07-19T21:08:20.028Z,17.90
2023-07-19T21:10:48.326Z,17.80
2023-07-19T21:13:16.154Z,17.80
2023-07-19T21:15:43.756Z,17.70
2023-07-19T21:18:11.677Z,17.60
2023-07-19T21:20:38.954Z,17.60
2023-07-19T21:23:06.512Z,17.50
2023-07-19T21:25:34.125Z,17.40
2023-07-19T21:28:01.640Z,17.40
2023-07-19T21:30:28.909Z,17.40
2023-07-19T21:32:56.493Z,17.40
2023-07-19T21:35:24.005Z,17.40
2023-07-19T21:37:51.667Z,17.40
2023-07-19T21:40:18.966Z,17.50
2023-07-19T21:42:46.099Z,17.50
2023-07-19T21:45:13.940Z,17.50
2023-07-19T21:47:41.293Z,17.50
2023-07-19T21:50:08.876Z,17.50
2023-07-19T21:52:36.017Z,17.60
2023-07-19T21:55:03.223Z,17.50
2023-07-19T21:57:30.362Z,17.40
2023-07-19T21:59:59.354Z,17.30
2023-07-19T22:02:26.926Z,17.20
2023-07-19T22:04:54.494Z,17.10
2023-07-19T22:07:21.718Z,17.10
2023-07-19T22:09:49.045Z,17.10
2023-07-19T22:12:16.528Z,17.00
2023-07-19T22:14:48.115Z,16.90
2023-07-19T22:17:21.411Z,16.90
2023-07-19T22:19:48.545Z,16.80
2023-07-19T22:22:15.697Z,16.80
2023-07-19T22:24:42.846Z,16.70
2023-07-19T22:27:10.086Z,16.70
2023-07-19T22:29:37.201Z,16.60
2023-07-19T22:32:04.858Z,16.50
2023-07-19T22:34:31.970Z,16.40
2023-07-19T22:36:59.122Z,16.40
2023-07-19T22:39:26.189Z,16.40
2023-07-19T22:41:53.390Z,16.30
2023-07-19T22:44:20.443Z,16.30
2023-07-19T22:46:48.032Z,16.30
2023-07-19T22:49:15.477Z,16.30
2023-07-19T22:51:42.653Z,16.30
2023-07-19T22:54:10.114Z,16.30
2023-07-19T22:56:37.291Z,16.20
2023-07-19T22:59:04.552Z,16.30
2023-07-19T23:01:31.689Z,16.20
2023-07-19T23:03:58.941Z,16.20
2023-07-19T23:06:26.074Z,16.30
2023-07-19T23:08:53.218Z,16.30
2023-07-19T23:11:20.340Z,16.30
2023-07-19T23:13:47.560Z,16.20
2023-07-19T23:16:14.870Z,16.30
2023-07-19T23:18:42.027Z,16.20
2023-07-19T23:21:09.157Z,16.20
2023-07-19T23:23:36.391Z,16.20
2023-07-19T23:26:03.465Z,16.20
2023-07-19T23:28:31.233Z,16.10
2023-07-19T23:30:58.312Z,16.10
2023-07-19T23:33:25.477Z,16.10
2023-07-19T23:35:52.788Z,16.10
2023-07-19T23:38:19.995Z,16.10
2023-07-19T23:40:49.130Z,16.10
2023-07-19T23:43:18.567Z,16.10
2023-07-19T23:45:45.745Z,16.20
2023-07-19T23:48:12.843Z,16.10
2023-07-19T23:50:40.090Z,16.20
2023-07-19T23:53:07.424Z,16.10
2023-07-19T23:55:34.662Z,16.10
2023-07-19T23:58:01.849Z,16.10
